sensor_id;sensor_type;location;lat;lon;timestamp;pressure;altitude;pressure_sealevel;temperature;humidity
44309;BME280;30022;55.846;37.340;2023-04-04T00:01:35;66027.00;;;-143.51;100.00
44309;BME280;30022;55.846;37.340;2023-04-04T00:04:01;67233.78;;;-143.51;100.00
44309;BME280;30022;55.846;37.340;2023-04-04T00:06:26;65026.91;;;-143.51;100.00
44309;BME280;30022;55.846;37.340;2023-04-04T00:08:52;68250.28;;;-143.51;100.00
44309;BME280;30022;55.846;37.340;2023-04-04T00:11:17;66183.78;;;-143.51;100.00
44309;BME280;30022;55.846;37.340;2023-04-04T00:13:43;66348.50;;;-143.51;100.00
44309;BME280;30022;55.846;37.340;2023-04-04T00:16:09;67229.81;;;-143.51;100.00
44309;BME280;30022;55.846;37.340;2023-04-04T00:18:35;68758.63;;;-143.51;100.00
44309;BME280;30022;55.846;37.340;2023-04-04T00:21:01;67331.03;;;-143.51;100.00
44309;BME280;30022;55.846;37.340;2023-04-04T00:23:26;66217.50;;;-143.51;100.00
44309;BME280;30022;55.846;37.340;2023-04-04T00:25:52;63951.72;;;-143.51;100.00
44309;BME280;30022;55.846;37.340;2023-04-04T00:28:18;65278.91;;;-143.51;100.00
44309;BME280;30022;55.846;37.340;2023-04-04T00:30:44;65193.59;;;-143.51;100.00
44309;BME280;30022;55.846;37.340;2023-04-04T00:33:11;63785.13;;;-143.51;100.00
44309;BME280;30022;55.846;37.340;2023-04-04T00:35:37;63959.66;;;-143.51;100.00
44309;BME280;30022;55.846;37.340;2023-04-04T00:38:02;63118.75;;;-143.51;100.00
44309;BME280;30022;55.846;37.340;2023-04-04T00:40:28;64774.97;;;-143.51;100.00
44309;BME280;30022;55.846;37.340;2023-04-04T00:42:53;65022.94;;;-143.51;100.00
44309;BME280;30022;55.846;37.340;2023-04-04T00:45:19;63570.91;;;-143.51;100.00
44309;BME280;30022;55.846;37.340;2023-04-04T00:47:45;64471.44;;;-143.51;100.00
44309;BME280;30022;55.846;37.340;2023-04-04T00:50:12;64812.66;;;-143.51;100.00
44309;BME280;30022;55.846;37.340;2023-04-04T00:52:37;66078.59;;;-143.51;100.00
44309;BME280;30022;55.846;37.340;2023-04-04T00:55:03;66979.69;;;-143.51;100.00
44309;BME280;30022;55.846;37.340;2023-04-04T00:57:29;68214.53;;;-143.51;100.00
44309;BME280;30022;55.846;37.340;2023-04-04T00:59:57;64638.06;;;-143.51;100.00
44309;BME280;30022;55.846;37.340;2023-04-04T01:02:23;67996.13;;;-143.51;100.00
44309;BME280;30022;55.846;37.340;2023-04-04T01:04:50;66608.50;;;-143.51;100.00
44309;BME280;30022;55.846;37.340;2023-04-04T01:07:15;64774.97;;;-143.51;100.00
44309;BME280;30022;55.846;37.340;2023-04-04T01:09:41;65092.41;;;-143.51;100.00
44309;BME280;30022;55.846;37.340;2023-04-04T01:12:07;61833.91;;;-143.51;100.00
44309;BME280;30022;55.846;37.340;2023-04-04T01:14:33;62801.47;;;-143.51;100.00
44309;BME280;30022;55.846;37.340;2023-04-04T01:16:59;63713.72;;;-143.51;100.00
44309;BME280;30022;55.846;37.340;2023-04-04T01:19:32;63761.31;;;-143.51;100.00
44309;BME280;30022;55.846;37.340;2023-04-04T01:22:03;65308.66;;;-143.51;100.00
44309;BME280;30022;55.846;37.340;2023-04-04T01:24:31;66505.28;;;-143.51;100.00
44309;BME280;30022;55.846;37.340;2023-04-04T01:26:58;66634.31;;;-143.51;100.00
44309;BME280;30022;55.846;37.340;2023-04-04T01:29:25;65465.41;;;-143.51;100.00
44309;BME280;30022;55.846;37.340;2023-04-04T01:31:56;64411.91;;;-143.51;100.00
44309;BME280;30022;55.846;37.340;2023-04-04T01:37:13;65800.75;;;-143.51;100.00
44309;BME280;30022;55.846;37.340;2023-04-04T01:39:42;64526.97;;;-143.51;100.00
44309;BME280;30022;55.846;37.340;2023-04-04T01:42:10;66646.22;;;-143.51;100.00
44309;BME280;30022;55.846;37.340;2023-04-04T01:44:37;67388.63;;;-143.51;100.00
44309;BME280;30022;55.846;37.340;2023-04-04T01:47:07;66193.69;;;-143.51;100.00
44309;BME280;30022;55.846;37.340;2023-04-04T01:49:33;64991.22;;;-143.51;100.00
44309;BME280;30022;55.846;37.340;2023-04-04T01:51:59;62452.47;;;-143.51;100.00
44309;BME280;30022;55.846;37.340;2023-04-04T01:54:26;61867.63;;;-143.51;100.00
44309;BME280;30022;55.846;37.340;2023-04-04T01:56:56;63110.81;;;-143.51;100.00
44309;BME280;30022;55.846;37.340;2023-04-04T01:59:22;64411.91;;;-143.51;100.00
44309;BME280;30022;55.846;37.340;2023-04-04T02:01:48;64173.88;;;-143.51;100.00
44309;BME280;30022;55.846;37.340;2023-04-04T02:04:13;65501.13;;;-143.51;100.00
44309;BME280;30022;55.846;37.340;2023-04-04T02:06:39;66384.22;;;-143.51;100.00
44309;BME280;30022;55.846;37.340;2023-04-04T02:09:05;66930.06;;;-143.51;100.00
44309;BME280;30022;55.846;37.340;2023-04-04T02:11:31;67690.38;;;-143.51;100.00
44309;BME280;30022;55.846;37.340;2023-04-04T02:13:57;69267.06;;;-143.51;100.00
44309;BME280;30022;55.846;37.340;2023-04-04T02:16:44;71047.03;;;-143.51;100.00
44309;BME280;30022;55.846;37.340;2023-04-04T02:19:10;70029.81;;;-143.51;100.00
44309;BME280;30022;55.846;37.340;2023-04-04T02:21:36;70284.09;;;-143.51;100.00
44309;BME280;30022;55.846;37.340;2023-04-04T02:24:01;67610.97;;;-143.51;100.00
44309;BME280;30022;55.846;37.340;2023-04-04T02:26:27;65822.59;;;-143.51;100.00
44309;BME280;30022;55.846;37.340;2023-04-04T02:28:53;67094.81;;;-143.51;100.00
44309;BME280;30022;55.846;37.340;2023-04-04T02:31:18;66306.81;;;-143.51;100.00
44309;BME280;30022;55.846;37.340;2023-04-04T02:33:44;65812.69;;;-143.51;100.00
44309;BME280;30022;55.846;37.340;2023-04-04T02:36:10;69521.28;;;-143.51;100.00
44309;BME280;30022;55.846;37.340;2023-04-04T02:38:38;68758.63;;;-143.51;100.00
44309;BME280;30022;55.846;37.340;2023-04-04T02:41:04;67956.41;;;-143.51;100.00
44309;BME280;30022;55.846;37.340;2023-04-04T02:43:30;68250.28;;;-143.51;100.00
44309;BME280;30022;55.846;37.340;2023-04-04T02:45:56;67233.78;;;-143.51;100.00
44309;BME280;30022;55.846;37.340;2023-04-04T02:48:23;69267.06;;;-143.51;100.00
44309;BME280;30022;55.846;37.340;2023-04-04T02:50:52;66205.59;;;-143.51;100.00
44309;BME280;30022;55.846;37.340;2023-04-04T02:53:17;65393.97;;;-143.51;100.00
44309;BME280;30022;55.846;37.340;2023-04-04T02:55:45;67742.00;;;-143.51;100.00
44309;BME280;30022;55.846;37.340;2023-04-04T02:58:12;66961.81;;;-143.51;100.00
44309;BME280;30022;55.846;37.340;2023-04-04T03:00:37;68504.47;;;-143.51;100.00
44309;BME280;30022;55.846;37.340;2023-04-04T03:03:03;66515.22;;;-143.51;100.00
44309;BME280;30022;55.846;37.340;2023-04-04T03:05:33;66594.63;;;-143.51;100.00
44309;BME280;30022;55.846;37.340;2023-04-04T03:08:00;66586.66;;;-143.51;100.00
44309;BME280;30022;55.846;37.340;2023-04-04T03:10:26;66834.78;;;-143.51;100.00
44309;BME280;30022;55.846;37.340;2023-04-04T03:12:54;65461.44;;;-143.51;100.00
44309;BME280;30022;55.846;37.340;2023-04-04T03:15:21;66322.69;;;-143.51;100.00
44309;BME280;30022;55.846;37.340;2023-04-04T03:17:46;64354.41;;;-143.51;100.00
44309;BME280;30022;55.846;37.340;2023-04-04T03:20:12;66471.56;;;-143.51;100.00
44309;BME280;30022;55.846;37.340;2023-04-04T03:22:39;67088.84;;;-143.51;100.00
44309;BME280;30022;55.846;37.340;2023-04-04T03:25:05;68250.28;;;-143.51;100.00
44309;BME280;30022;55.846;37.340;2023-04-04T03:27:32;64864.22;;;-143.51;100.00
44309;BME280;30022;55.846;37.340;2023-04-04T03:29:57;67398.53;;;-143.51;100.00
44309;BME280;30022;55.846;37.340;2023-04-04T03:32:28;65522.97;;;-143.51;100.00
44309;BME280;30022;55.846;37.340;2023-04-04T03:34:54;62793.53;;;-143.51;100.00
44309;BME280;30022;55.846;37.340;2023-04-04T03:37:20;66924.09;;;-143.51;100.00
44309;BME280;30022;55.846;37.340;2023-04-04T03:39:47;64895.97;;;-143.51;100.00
44309;BME280;30022;55.846;37.340;2023-04-04T03:42:13;68504.47;;;-143.51;100.00
44309;BME280;30022;55.846;37.340;2023-04-04T03:44:39;66362.41;;;-143.51;100.00
44309;BME280;30022;55.846;37.340;2023-04-04T03:47:06;63985.44;;;-143.51;100.00
44309;BME280;30022;55.846;37.340;2023-04-04T03:49:34;66834.78;;;-143.51;100.00
44309;BME280;30022;55.846;37.340;2023-04-04T03:52:00;65929.75;;;-143.51;100.00
44309;BME280;30022;55.846;37.340;2023-04-04T03:54:27;66193.69;;;-143.51;100.00
44309;BME280;30022;55.846;37.340;2023-04-04T03:56:53;65578.53;;;-143.51;100.00
44309;BME280;30022;55.846;37.340;2023-04-04T03:59:19;67178.19;;;-143.51;100.00
44309;BME280;30022;55.846;37.340;2023-04-04T04:01:46;66461.63;;;-143.51;100.00
44309;BME280;30022;55.846;37.340;2023-04-04T04:04:11;65491.22;;;-143.51;100.00
44309;BME280;30022;55.846;37.340;2023-04-04T04:06:38;65251.13;;;-143.51;100.00
44309;BME280;30022;55.846;37.340;2023-04-04T04:09:04;63931.88;;;-143.51;100.00
44309;BME280;30022;55.846;37.340;2023-04-04T04:11:30;68250.28;;;-143.51;100.00
44309;BME280;30022;55.846;37.340;2023-04-04T04:13:55;66844.72;;;-143.51;100.00
44309;BME280;30022;55.846;37.340;2023-04-04T04:16:21;69775.53;;;-143.51;100.00
44309;BME280;30022;55.846;37.340;2023-04-04T04:18:48;69267.06;;;-143.51;100.00
44309;BME280;30022;55.846;37.340;2023-04-04T04:21:21;67646.69;;;-143.51;100.00
44309;BME280;30022;55.846;37.340;2023-04-04T04:23:47;69521.28;;;-143.51;100.00
44309;BME280;30022;55.846;37.340;2023-04-04T04:26:13;67742.00;;;-143.51;100.00
44309;BME280;30022;55.846;37.340;2023-04-04T04:28:39;68504.47;;;-143.51;100.00
44309;BME280;30022;55.846;37.340;2023-04-04T04:31:09;70029.81;;;-143.51;100.00
44309;BME280;30022;55.846;37.340;2023-04-04T04:33:46;69775.53;;;-143.51;100.00
44309;BME280;30022;55.846;37.340;2023-04-04T04:36:11;69267.06;;;-143.51;100.00
44309;BME280;30022;55.846;37.340;2023-04-04T04:38:46;69267.06;;;-143.51;100.00
44309;BME280;30022;55.846;37.340;2023-04-04T04:41:14;70029.81;;;-143.51;100.00
44309;BME280;30022;55.846;37.340;2023-04-04T04:43:44;70284.09;;;-143.51;100.00
44309;BME280;30022;55.846;37.340;2023-04-04T04:46:10;67996.13;;;-143.51;100.00
44309;BME280;30022;55.846;37.340;2023-04-04T04:48:35;66995.56;;;-143.51;100.00
44309;BME280;30022;55.846;37.340;2023-04-04T04:51:02;67996.13;;;-143.51;100.00
44309;BME280;30022;55.846;37.340;2023-04-04T04:53:42;66884.41;;;-143.51;100.00
44309;BME280;30022;55.846;37.340;2023-04-04T04:56:08;68758.63;;;-143.51;100.00
44309;BME280;30022;55.846;37.340;2023-04-04T04:58:37;71555.75;;;-143.51;100.00
44309;BME280;30022;55.846;37.340;2023-04-04T05:01:06;71555.75;;;-143.51;100.00
44309;BME280;30022;55.846;37.340;2023-04-04T05:03:36;67559.34;;;-143.51;100.00
44309;BME280;30022;55.846;37.340;2023-04-04T05:06:04;67742.00;;;-143.51;100.00
44309;BME280;30022;55.846;37.340;2023-04-04T05:08:31;67033.28;;;-143.51;100.00
44309;BME280;30022;55.846;37.340;2023-04-04T05:11:19;66253.25;;;-143.51;100.00
44309;BME280;30022;55.846;37.340;2023-04-04T05:13:46;66981.66;;;-143.51;100.00
44309;BME280;30022;55.846;37.340;2023-04-04T05:16:12;65203.50;;;-143.51;100.00
44309;BME280;30022;55.846;37.340;2023-04-04T05:18:39;61871.59;;;-143.51;100.00
44309;BME280;30022;55.846;37.340;2023-04-04T05:21:08;64695.59;;;-143.51;100.00
44309;BME280;30022;55.846;37.340;2023-04-04T05:23:33;64556.72;;;-143.51;100.00
44309;BME280;30022;55.846;37.340;2023-04-04T05:25:59;63566.94;;;-143.51;100.00
44309;BME280;30022;55.846;37.340;2023-04-04T05:28:30;62119.41;;;-143.51;100.00
44309;BME280;30022;55.846;37.340;2023-04-04T05:30:59;61873.56;;;-143.51;100.00
44309;BME280;30022;55.846;37.340;2023-04-04T05:33:28;64154.03;;;-143.51;100.00
44309;BME280;30022;55.846;37.340;2023-04-04T05:36:16;63501.50;;;-143.51;100.00
44309;BME280;30022;55.846;37.340;2023-04-04T05:38:51;62042.06;;;-143.51;100.00
44309;BME280;30022;55.846;37.340;2023-04-04T05:41:19;59289.28;;;-143.51;100.00
44309;BME280;30022;55.846;37.340;2023-04-04T05:43:48;60155.16;;;-143.51;100.00
44309;BME280;30022;55.846;37.340;2023-04-04T05:46:16;57175.94;;;-143.51;100.00
44309;BME280;30022;55.846;37.340;2023-04-04T05:48:49;58631.59;;;-143.51;100.00
44309;BME280;30022;55.846;37.340;2023-04-04T05:51:15;56108.81;;;-143.51;100.00
44309;BME280;30022;55.846;37.340;2023-04-04T05:54:01;60022.38;;;-143.51;100.00
44309;BME280;30022;55.846;37.340;2023-04-04T05:56:31;63178.25;;;-143.51;100.00
44309;BME280;30022;55.846;37.340;2023-04-04T05:58:59;59756.88;;;-143.51;100.00
44309;BME280;30022;55.846;37.340;2023-04-04T06:01:27;61510.78;;;-143.51;100.00
44309;BME280;30022;55.846;37.340;2023-04-04T06:03:55;61118.31;;;-143.51;100.00
44309;BME280;30022;55.846;37.340;2023-04-04T06:06:28;58011.63;;;-143.51;100.00
44309;BME280;30022;55.846;37.340;2023-04-04T06:08:53;59425.97;;;-143.51;100.00
44309;BME280;30022;55.846;37.340;2023-04-04T06:11:20;57467.03;;;-143.51;100.00
44309;BME280;30022;55.846;37.340;2023-04-04T06:13:49;60922.09;;;-143.51;100.00
44309;BME280;30022;55.846;37.340;2023-04-04T06:16:18;56762.13;;;-143.51;100.00
44309;BME280;30022;55.846;37.340;2023-04-04T06:18:43;59923.31;;;-143.51;100.00
44309;BME280;30022;55.846;37.340;2023-04-04T06:21:09;56603.72;;;-143.51;100.00
44309;BME280;30022;55.846;37.340;2023-04-04T06:23:38;59792.53;;;-143.51;100.00
44309;BME280;30022;55.846;37.340;2023-04-04T06:26:04;56174.13;;;-143.51;100.00
44309;BME280;30022;55.846;37.340;2023-04-04T06:28:31;56229.56;;;-143.51;100.00
44309;BME280;30022;55.846;37.340;2023-04-04T06:30:57;58084.91;;;-143.51;100.00
44309;BME280;30022;55.846;37.340;2023-04-04T06:33:29;56528.50;;;-143.51;100.00
44309;BME280;30022;55.846;37.340;2023-04-04T06:35:55;59473.53;;;-143.51;100.00
44309;BME280;30022;55.846;37.340;2023-04-04T06:38:21;58100.75;;;-143.51;100.00
44309;BME280;30022;55.846;37.340;2023-04-04T06:40:47;57078.91;;;-143.51;100.00
44309;BME280;30022;55.846;37.340;2023-04-04T06:43:13;58213.66;;;-143.51;100.00
44309;BME280;30022;55.846;37.340;2023-04-04T06:45:43;56643.31;;;-143.51;100.00
44309;BME280;30022;55.846;37.340;2023-04-04T06:48:09;57322.47;;;-143.51;100.00
44309;BME280;30022;55.846;37.340;2023-04-04T06:50:36;55281.41;;;-143.51;100.00
44309;BME280;30022;55.846;37.340;2023-04-04T06:53:04;57344.25;;;-143.51;100.00
44309;BME280;30022;55.846;37.340;2023-04-04T06:55:31;56486.91;;;-143.51;100.00
44309;BME280;30022;55.846;37.340;2023-04-04T06:57:57;57615.53;;;-143.51;100.00
44309;BME280;30022;55.846;37.340;2023-04-04T07:00:23;58532.53;;;-143.51;100.00
44309;BME280;30022;55.846;37.340;2023-04-04T07:02:49;57577.91;;;-143.51;100.00
44309;BME280;30022;55.846;37.340;2023-04-04T07:05:14;55089.44;;;-143.51;100.00
44309;BME280;30022;55.846;37.340;2023-04-04T07:07:43;54260.31;;;-143.51;100.00
44309;BME280;30022;55.846;37.340;2023-04-04T07:10:08;55032.06;;;-143.51;100.00
44309;BME280;30022;55.846;37.340;2023-04-04T07:12:34;54284.03;;;-143.51;100.00
44309;BME280;30022;55.846;37.340;2023-04-04T07:15:00;55469.44;;;-143.51;100.00
44309;BME280;30022;55.846;37.340;2023-04-04T07:17:26;56409.72;;;-143.51;100.00
44309;BME280;30022;55.846;37.340;2023-04-04T07:19:51;54503.69;;;-143.51;100.00
44309;BME280;30022;55.846;37.340;2023-04-04T07:22:17;53387.81;;;-143.51;100.00
44309;BME280;30022;55.846;37.340;2023-04-04T07:24:43;53233.50;;;-143.51;100.00
44309;BME280;30022;55.846;37.340;2023-04-04T07:27:09;51708.66;;;-143.51;100.00
44309;BME280;30022;55.846;37.340;2023-04-04T07:29:35;51649.34;;;-143.51;100.00
44309;BME280;30022;55.846;37.340;2023-04-04T07:32:01;51641.41;;;-143.51;100.00
44309;BME280;30022;55.846;37.340;2023-04-04T07:34:26;53567.84;;;-143.51;100.00
44309;BME280;30022;55.846;37.340;2023-04-04T07:36:53;52151.63;;;-143.51;100.00
44309;BME280;30022;55.846;37.340;2023-04-04T07:39:19;51734.34;;;-143.51;100.00
44309;BME280;30022;55.846;37.340;2023-04-04T07:41:44;52944.72;;;-143.51;100.00
44309;BME280;30022;55.846;37.340;2023-04-04T07:44:10;52843.84;;;-143.51;100.00
44309;BME280;30022;55.846;37.340;2023-04-04T07:46:36;50401.81;;;-143.51;100.00
44309;BME280;30022;55.846;37.340;2023-04-04T07:49:04;51435.78;;;-143.51;100.00
44309;BME280;30022;55.846;37.340;2023-04-04T07:51:31;51064.09;;;-143.51;100.00
44309;BME280;30022;55.846;37.340;2023-04-04T07:53:59;51269.69;;;-143.51;100.00
44309;BME280;30022;55.846;37.340;2023-04-04T07:56:26;51336.94;;;-143.51;100.00
44309;BME280;30022;55.846;37.340;2023-04-04T07:58:51;51728.44;;;-143.51;100.00
44309;BME280;30022;55.846;37.340;2023-04-04T08:01:17;51837.19;;;-143.51;100.00
44309;BME280;30022;55.846;37.340;2023-04-04T08:03:43;51823.34;;;-143.51;100.00
44309;BME280;30022;55.846;37.340;2023-04-04T08:06:08;52179.31;;;-143.51;100.00
44309;BME280;30022;55.846;37.340;2023-04-04T08:08:34;50886.16;;;-143.51;100.00
44309;BME280;30022;55.846;37.340;2023-04-04T08:10:59;50071.72;;;-143.51;100.00
44309;BME280;30022;55.846;37.340;2023-04-04T08:13:25;49937.31;;;-143.51;100.00
44309;BME280;30022;55.846;37.340;2023-04-04T08:15:51;50055.91;;;-143.51;100.00
44309;BME280;30022;55.846;37.340;2023-04-04T08:18:16;49783.16;;;-143.51;100.00
44309;BME280;30022;55.846;37.340;2023-04-04T08:20:42;49356.28;;;-143.51;100.00
44309;BME280;30022;55.846;37.340;2023-04-04T08:23:08;49057.88;;;-143.51;100.00
44309;BME280;30022;55.846;37.340;2023-04-04T08:25:34;49500.53;;;-143.51;100.00
44309;BME280;30022;55.846;37.340;2023-04-04T08:28:00;49115.19;;;-143.51;100.00
44309;BME280;30022;55.846;37.340;2023-04-04T08:30:28;49293.03;;;-143.51;100.00
44309;BME280;30022;55.846;37.340;2023-04-04T08:32:53;48791.13;;;-143.51;100.00
44309;BME280;30022;55.846;37.340;2023-04-04T08:35:19;49160.63;;;-143.51;100.00
44309;BME280;30022;55.846;37.340;2023-04-04T08:37:44;49186.31;;;-143.51;100.00
44309;BME280;30022;55.846;37.340;2023-04-04T08:40:10;49144.81;;;-143.51;100.00
44309;BME280;30022;55.846;37.340;2023-04-04T08:42:39;49524.25;;;-143.51;100.00
44309;BME280;30022;55.846;37.340;2023-04-04T08:45:04;50138.91;;;-143.51;100.00
44309;BME280;30022;55.846;37.340;2023-04-04T08:47:32;49842.44;;;-143.51;100.00
44309;BME280;30022;55.846;37.340;2023-04-04T08:50:02;49812.81;;;-143.51;100.00
44309;BME280;30022;55.846;37.340;2023-04-04T08:52:28;49277.22;;;-143.51;100.00
44309;BME280;30022;55.846;37.340;2023-04-04T08:54:55;48834.59;;;-143.51;100.00
44309;BME280;30022;55.846;37.340;2023-04-04T08:57:22;48818.78;;;-143.51;100.00
44309;BME280;30022;55.846;37.340;2023-04-04T08:59:47;49348.38;;;-143.51;100.00
44309;BME280;30022;55.846;37.340;2023-04-04T09:02:14;48903.75;;;-143.51;100.00
44309;BME280;30022;55.846;37.340;2023-04-04T09:04:42;48719.97;;;-143.51;100.00
44309;BME280;30022;55.846;37.340;2023-04-04T09:07:08;49389.88;;;-143.51;100.00
44309;BME280;30022;55.846;37.340;2023-04-04T09:09:34;48996.63;;;-143.51;100.00
44309;BME280;30022;55.846;37.340;2023-04-04T09:12:02;48522.41;;;-143.51;100.00
44309;BME280;30022;55.846;37.340;2023-04-04T09:14:30;48237.91;;;-143.51;100.00
44309;BME280;30022;55.846;37.340;2023-04-04T09:16:56;48200.34;;;-143.51;100.00
44309;BME280;30022;55.846;37.340;2023-04-04T09:19:22;48395.94;;;-143.51;100.00
44309;BME280;30022;55.846;37.340;2023-04-04T09:21:48;48131.22;;;-143.51;100.00
44309;BME280;30022;55.846;37.340;2023-04-04T09:24:14;47621.53;;;-143.51;100.00
44309;BME280;30022;55.846;37.340;2023-04-04T09:26:47;48287.28;;;-143.51;100.00
44309;BME280;30022;55.846;37.340;2023-04-04T09:29:13;48210.22;;;-143.51;100.00
44309;BME280;30022;55.846;37.340;2023-04-04T09:31:39;48226.03;;;-143.51;100.00
44309;BME280;30022;55.846;37.340;2023-04-04T09:34:05;48160.84;;;-143.51;100.00
44309;BME280;30022;55.846;37.340;2023-04-04T09:36:31;48042.31;;;-143.51;100.00
44309;BME280;30022;55.846;37.340;2023-04-04T09:38:56;47712.41;;;-143.51;100.00
44309;BME280;30022;55.846;37.340;2023-04-04T09:41:22;47605.72;;;-143.51;100.00
44309;BME280;30022;55.846;37.340;2023-04-04T09:43:50;47777.59;;;-143.51;100.00
44309;BME280;30022;55.846;37.340;2023-04-04T09:46:18;47900.06;;;-143.51;100.00
44309;BME280;30022;55.846;37.340;2023-04-04T09:48:48;47864.50;;;-143.51;100.00
44309;BME280;30022;55.846;37.340;2023-04-04T09:51:15;47961.31;;;-143.51;100.00
44309;BME280;30022;55.846;37.340;2023-04-04T09:53:40;47985.03;;;-143.51;100.00
44309;BME280;30022;55.846;37.340;2023-04-04T09:56:06;48192.44;;;-143.51;100.00
44309;BME280;30022;55.846;37.340;2023-04-04T09:58:33;48372.25;;;-143.51;100.00
44309;BME280;30022;55.846;37.340;2023-04-04T10:01:01;48131.22;;;-143.51;100.00
44309;BME280;30022;55.846;37.340;2023-04-04T10:03:27;48316.91;;;-143.51;100.00
44309;BME280;30022;55.846;37.340;2023-04-04T10:06:03;47907.97;;;-143.51;100.00
44309;BME280;30022;55.846;37.340;2023-04-04T10:08:29;48326.81;;;-143.51;100.00
44309;BME280;30022;55.846;37.340;2023-04-04T10:10:56;48392.00;;;-143.51;100.00
44309;BME280;30022;55.846;37.340;2023-04-04T10:13:25;48354.47;;;-143.51;100.00
44309;BME280;30022;55.846;37.340;2023-04-04T10:15:53;48433.50;;;-143.51;100.00
44309;BME280;30022;55.846;37.340;2023-04-04T10:18:20;48014.66;;;-143.51;100.00
44309;BME280;30022;55.846;37.340;2023-04-04T10:20:46;47854.63;;;-143.51;100.00
44309;BME280;30022;55.846;37.340;2023-04-04T10:23:13;47805.25;;;-143.51;100.00
44309;BME280;30022;55.846;37.340;2023-04-04T10:25:39;48066.00;;;-143.51;100.00
44309;BME280;30022;55.846;37.340;2023-04-04T10:28:05;47939.59;;;-143.51;100.00
44309;BME280;30022;55.846;37.340;2023-04-04T10:30:32;47866.50;;;-143.51;100.00
44309;BME280;30022;55.846;37.340;2023-04-04T10:33:06;47797.34;;;-143.51;100.00
44309;BME280;30022;55.846;37.340;2023-04-04T10:35:33;48038.34;;;-143.51;100.00
44309;BME280;30022;55.846;37.340;2023-04-04T10:38:00;48016.63;;;-143.51;100.00
44309;BME280;30022;55.846;37.340;2023-04-04T10:40:29;48431.50;;;-143.51;100.00
44309;BME280;30022;55.846;37.340;2023-04-04T10:42:57;47904.03;;;-143.51;100.00
44309;BME280;30022;55.846;37.340;2023-04-04T10:45:25;48530.31;;;-143.51;100.00
44309;BME280;30022;55.846;37.340;2023-04-04T10:47:51;48648.84;;;-143.51;100.00
44309;BME280;30022;55.846;37.340;2023-04-04T10:50:17;48457.19;;;-143.51;100.00
44309;BME280;30022;55.846;37.340;2023-04-04T10:52:44;48723.94;;;-143.51;100.00
44309;BME280;30022;55.846;37.340;2023-04-04T10:55:11;48846.44;;;-143.51;100.00
44309;BME280;30022;55.846;37.340;2023-04-04T10:57:42;49036.13;;;-143.51;100.00
44309;BME280;30022;55.846;37.340;2023-04-04T11:00:14;48447.31;;;-143.51;100.00
44309;BME280;30022;55.846;37.340;2023-04-04T11:03:03;48354.47;;;-143.51;100.00
44309;BME280;30022;55.846;37.340;2023-04-04T11:08:01;48172.69;;;-143.51;100.00
44309;BME280;30022;55.846;37.340;2023-04-04T11:10:27;47706.47;;;-143.51;100.00
44309;BME280;30022;55.846;37.340;2023-04-04T11:12:54;47941.56;;;-143.51;100.00
44309;BME280;30022;55.846;37.340;2023-04-04T11:15:21;48026.50;;;-143.51;100.00
44309;BME280;30022;55.846;37.340;2023-04-04T11:20:20;47923.78;;;-143.51;100.00
44309;BME280;30022;55.846;37.340;2023-04-04T11:22:52;48095.66;;;-143.51;100.00
44309;BME280;30022;55.846;37.340;2023-04-04T11:25:40;48052.19;;;-143.51;100.00
44309;BME280;30022;55.846;37.340;2023-04-04T11:28:13;47787.47;;;-143.51;100.00
44309;BME280;30022;55.846;37.340;2023-04-04T11:30:40;47653.16;;;-143.51;100.00
44309;BME280;30022;55.846;37.340;2023-04-04T11:33:24;47613.63;;;-143.51;100.00
44309;BME280;30022;55.846;37.340;2023-04-04T11:35:56;48018.59;;;-143.51;100.00
44309;BME280;30022;55.846;37.340;2023-04-04T11:38:23;47627.47;;;-143.51;100.00
44309;BME280;30022;55.846;37.340;2023-04-04T11:40:51;48002.78;;;-143.51;100.00
44309;BME280;30022;55.846;37.340;2023-04-04T11:43:17;48069.97;;;-143.51;100.00
44309;BME280;30022;55.846;37.340;2023-04-04T11:45:44;48200.34;;;-143.51;100.00
44309;BME280;30022;55.846;37.340;2023-04-04T11:48:10;48279.38;;;-143.51;100.00
44309;BME280;30022;55.846;37.340;2023-04-04T11:50:37;48421.63;;;-143.51;100.00
44309;BME280;30022;55.846;37.340;2023-04-04T11:53:04;48376.19;;;-143.51;100.00
44309;BME280;30022;55.846;37.340;2023-04-04T11:55:30;47747.97;;;-143.51;100.00
44309;BME280;30022;55.846;37.340;2023-04-04T11:57:55;48101.56;;;-143.51;100.00
44309;BME280;30022;55.846;37.340;2023-04-04T12:00:41;47765.75;;;-143.51;100.00
44309;BME280;30022;55.846;37.340;2023-04-04T12:03:09;47874.38;;;-143.51;100.00
44309;BME280;30022;55.846;37.340;2023-04-04T12:05:36;48184.56;;;-143.51;100.00
44309;BME280;30022;55.846;37.340;2023-04-04T12:08:02;48069.97;;;-143.51;100.00
44309;BME280;30022;55.846;37.340;2023-04-04T12:10:35;48328.78;;;-143.51;100.00
44309;BME280;30022;55.846;37.340;2023-04-04T12:13:01;48368.28;;;-143.51;100.00
44309;BME280;30022;55.846;37.340;2023-04-04T12:15:27;48050.22;;;-143.51;100.00
44309;BME280;30022;55.846;37.340;2023-04-04T12:17:54;48091.69;;;-143.51;100.00
44309;BME280;30022;55.846;37.340;2023-04-04T12:20:22;48492.75;;;-143.51;100.00
44309;BME280;30022;55.846;37.340;2023-04-04T12:22:49;48413.72;;;-143.51;100.00
44309;BME280;30022;55.846;37.340;2023-04-04T12:25:17;48071.94;;;-143.51;100.00
44309;BME280;30022;55.846;37.340;2023-04-04T12:27:42;47710.44;;;-143.51;100.00
44309;BME280;30022;55.846;37.340;2023-04-04T12:30:09;47637.34;;;-143.51;100.00